Time;durP1;ratioP1;P1;durP2;ratioP2;P2;SDS_P1;SDS_P2;PMS_P1;PMS_P2;Temp;Humidity;BMP_temperature;BMP_pressure;BME280_temperature;BME280_humidity;BME280_pressure;Samples;Min_cycle;Max_cycle;Signal;HPM_P1;HPM_P2
2023/08/08 00:01:34;;;;;;;1.00;0.80;;;21.40;51.00;;;;;;5149423;27;45356;-71
2023/08/08 00:04:01;;;;;;;0.80;0.80;;;21.40;51.00;;;;;;5149347;27;45268;-71
2023/08/08 00:06:27;;;;;;;1.95;0.90;;;21.40;51.00;;;;;;5149438;27;45237;-71
2023/08/08 00:08:54;;;;;;;1.27;0.93;;;21.40;51.00;;;;;;5149794;27;45271;-71
2023/08/08 00:11:21;;;;;;;0.80;0.80;;;21.40;51.00;;;;;;5149397;27;46281;-71
2023/08/08 00:13:49;;;;;;;0.80;0.80;;;21.30;51.00;;;;;;5149323;27;45460;-71
2023/08/08 00:16:16;;;;;;;1.10;0.90;;;21.40;51.00;;;;;;5149091;27;45290;-71
2023/08/08 00:18:43;;;;;;;1.00;0.70;;;21.30;51.60;;;;;;5148955;27;45453;-71
2023/08/08 00:21:10;;;;;;;0.60;0.60;;;21.30;51.00;;;;;;5149076;27;45229;-71
2023/08/08 00:23:36;;;;;;;1.00;0.90;;;21.30;51.00;;;;;;5149406;27;45241;-71
2023/08/08 00:26:03;;;;;;;1.60;0.75;;;21.30;51.00;;;;;;5149380;27;45295;-71
2023/08/08 00:28:30;;;;;;;0.88;0.80;;;21.30;51.10;;;;;;5149456;27;45216;-71
2023/08/08 00:30:58;;;;;;;0.60;0.40;;;21.30;51.00;;;;;;5148730;27;46374;-71
2023/08/08 00:33:25;;;;;;;0.80;0.80;;;21.30;51.00;;;;;;5148773;27;45297;-72
2023/08/08 00:35:52;;;;;;;0.70;0.70;;;21.30;51.10;;;;;;5149212;27;45301;-71
2023/08/08 00:38:19;;;;;;;0.80;0.80;;;21.30;51.00;;;;;;5149337;27;45137;-71
2023/08/08 00:40:45;;;;;;;0.80;0.80;;;21.20;51.00;;;;;;5146276;27;45474;-71
2023/08/08 00:43:12;;;;;;;0.80;0.80;;;21.20;51.00;;;;;;5148742;27;45209;-71
2023/08/08 00:45:39;;;;;;;0.90;0.80;;;21.20;51.00;;;;;;5148786;27;45426;-71
2023/08/08 00:48:08;;;;;;;1.02;0.80;;;21.20;51.10;;;;;;5149143;27;45357;-71
2023/08/08 00:50:35;;;;;;;0.68;0.68;;;21.20;51.10;;;;;;5148815;27;45293;-70
2023/08/08 00:53:02;;;;;;;0.80;0.80;;;21.20;51.10;;;;;;5148588;27;45232;-71
2023/08/08 00:55:28;;;;;;;0.80;0.80;;;21.20;51.10;;;;;;5148836;27;45214;-72
2023/08/08 00:57:55;;;;;;;0.65;0.65;;;21.20;51.00;;;;;;5149016;27;45328;-71
2023/08/08 01:00:22;;;;;;;0.70;0.70;;;21.10;51.00;;;;;;5148673;27;47284;-71
2023/08/08 01:02:49;;;;;;;0.50;0.50;;;21.10;51.00;;;;;;5148024;27;45265;-71
2023/08/08 01:05:17;;;;;;;0.60;0.60;;;21.10;51.10;;;;;;5148913;27;45236;-71
2023/08/08 01:07:48;;;;;;;1.13;0.70;;;21.10;51.00;;;;;;5148902;27;45359;-71
2023/08/08 01:10:16;;;;;;;0.63;0.63;;;21.10;51.00;;;;;;5148458;27;46454;-71
2023/08/08 01:12:46;;;;;;;0.60;0.60;;;21.10;51.00;;;;;;5148553;27;45294;-71
2023/08/08 01:15:13;;;;;;;0.60;0.60;;;21.10;51.00;;;;;;5148706;27;45349;-72
2023/08/08 01:17:40;;;;;;;0.77;0.70;;;21.10;51.10;;;;;;5148857;27;45238;-70
2023/08/08 01:20:08;;;;;;;0.60;0.60;;;21.00;51.00;;;;;;5148338;27;45317;-71
2023/08/08 01:22:40;;;;;;;0.82;0.73;;;21.00;51.10;;;;;;5148385;27;45393;-72
2023/08/08 01:25:09;;;;;;;0.65;0.65;;;21.00;51.00;;;;;;5148521;27;45251;-71
2023/08/08 01:27:36;;;;;;;0.57;0.57;;;21.00;51.10;;;;;;5148554;27;45283;-71
2023/08/08 01:30:03;;;;;;;0.80;0.80;;;21.00;51.10;;;;;;5148222;27;45344;-71
2023/08/08 01:32:30;;;;;;;0.63;0.63;;;21.00;51.10;;;;;;5148062;27;45263;-71
2023/08/08 01:34:57;;;;;;;0.50;0.50;;;21.00;51.10;;;;;;5148785;27;45251;-71
2023/08/08 01:37:27;;;;;;;0.68;0.68;;;21.00;51.10;;;;;;5148677;27;45428;-71
2023/08/08 01:39:54;;;;;;;0.93;0.80;;;20.90;51.00;;;;;;5148154;27;45324;-71
2023/08/08 01:42:23;;;;;;;0.93;0.80;;;20.90;51.00;;;;;;5148184;27;45259;-70
2023/08/08 01:44:50;;;;;;;0.70;0.70;;;20.90;51.00;;;;;;5148225;27;45343;-71
2023/08/08 01:47:17;;;;;;;0.70;0.70;;;20.90;51.10;;;;;;5148401;27;45278;-71
2023/08/08 01:49:43;;;;;;;0.70;0.70;;;20.90;51.00;;;;;;5147716;27;45465;-71
2023/08/08 01:52:10;;;;;;;0.73;0.60;;;20.90;51.60;;;;;;5147434;27;45186;-71
2023/08/08 01:54:37;;;;;;;0.70;0.70;;;20.90;51.10;;;;;;5147675;27;45406;-71
2023/08/08 01:57:04;;;;;;;0.70;0.70;;;20.90;51.00;;;;;;5150706;27;45354;-71
2023/08/08 01:59:33;;;;;;;0.70;0.70;;;20.90;51.00;;;;;;5151181;27;46597;-71
2023/08/08 02:01:59;;;;;;;0.73;0.60;;;20.90;51.10;;;;;;5151520;27;45296;-71
2023/08/08 02:04:26;;;;;;;1.00;0.70;;;20.80;51.00;;;;;;5151534;27;45259;-71
2023/08/08 02:06:53;;;;;;;0.73;0.68;;;20.80;51.10;;;;;;5152025;27;45399;-71
2023/08/08 02:09:20;;;;;;;0.70;0.70;;;20.80;51.00;;;;;;5151545;27;48765;-71
2023/08/08 02:11:47;;;;;;;0.60;0.60;;;20.80;51.00;;;;;;5151442;27;45371;-71
2023/08/08 02:14:13;;;;;;;0.60;0.60;;;20.80;51.00;;;;;;5151460;27;45298;-70
2023/08/08 02:16:42;;;;;;;0.60;0.60;;;20.80;51.10;;;;;;5151843;27;45192;-71
2023/08/08 02:19:09;;;;;;;0.43;0.43;;;20.80;51.10;;;;;;5151140;27;45309;-71
2023/08/08 02:21:36;;;;;;;0.60;0.60;;;20.70;51.00;;;;;;5151051;27;45285;-71
2023/08/08 02:24:02;;;;;;;0.82;0.68;;;20.80;51.10;;;;;;5151430;27;45237;-71
2023/08/08 02:26:29;;;;;;;0.80;0.80;;;20.70;51.00;;;;;;5151314;27;45284;-71
2023/08/08 02:28:56;;;;;;;0.55;0.55;;;20.70;51.00;;;;;;5150822;27;46727;-71
2023/08/08 02:31:23;;;;;;;0.40;0.40;;;20.70;51.00;;;;;;5150893;27;45233;-71
2023/08/08 02:33:51;;;;;;;0.82;0.82;;;20.70;51.00;;;;;;5150492;27;45256;-70
2023/08/08 02:36:18;;;;;;;0.85;0.60;;;20.70;51.00;;;;;;5150756;27;45277;-70
2023/08/08 02:38:45;;;;;;;0.60;0.60;;;20.70;51.00;;;;;;5150804;27;45366;-70
2023/08/08 02:41:11;;;;;;;0.60;0.60;;;20.70;51.00;;;;;;5150551;27;45189;-70
2023/08/08 02:43:38;;;;;;;0.85;0.85;;;20.70;51.00;;;;;;5150681;27;45269;-70
2023/08/08 02:46:05;;;;;;;0.60;0.60;;;20.70;51.10;;;;;;5151049;27;45282;-71
2023/08/08 02:48:32;;;;;;;0.90;0.70;;;20.60;51.00;;;;;;5150615;27;46285;-71
2023/08/08 02:51:00;;;;;;;0.63;0.63;;;20.60;51.00;;;;;;5150645;27;45213;-71
2023/08/08 02:53:27;;;;;;;1.00;0.63;;;20.60;51.00;;;;;;5150437;27;45266;-70
2023/08/08 02:55:54;;;;;;;0.60;0.60;;;20.60;51.00;;;;;;5150695;27;45532;-70
2023/08/08 02:58:22;;;;;;;0.55;0.55;;;20.60;51.00;;;;;;5150585;27;46560;-70
2023/08/08 03:00:49;;;;;;;0.60;0.60;;;20.60;51.10;;;;;;5150386;27;45295;-70
2023/08/08 03:03:15;;;;;;;0.70;0.70;;;20.60;51.00;;;;;;5150982;27;45250;-70
2023/08/08 03:05:42;;;;;;;0.50;0.50;;;20.60;51.00;;;;;;5150624;27;45426;-71
2023/08/08 03:08:10;;;;;;;1.17;0.70;;;20.60;51.10;;;;;;5149926;27;46363;-70
2023/08/08 03:10:37;;;;;;;0.50;0.50;;;20.50;51.00;;;;;;5150365;27;45282;-71
2023/08/08 03:13:04;;;;;;;0.73;0.63;;;20.50;51.10;;;;;;5150634;27;45305;-70
2023/08/08 03:15:31;;;;;;;1.00;0.63;;;20.50;51.00;;;;;;5150624;27;45452;-70
2023/08/08 03:17:58;;;;;;;0.57;0.57;;;20.50;51.00;;;;;;5149663;27;47558;-70
2023/08/08 03:20:25;;;;;;;0.60;0.60;;;20.50;51.10;;;;;;5150391;27;45169;-70
2023/08/08 03:22:52;;;;;;;0.70;0.70;;;20.50;51.00;;;;;;5150523;27;45242;-71
2023/08/08 03:25:20;;;;;;;0.70;0.70;;;20.50;51.10;;;;;;5150556;27;45296;-71
2023/08/08 03:27:47;;;;;;;1.20;0.90;;;20.50;51.10;;;;;;5149936;27;46742;-70
2023/08/08 03:30:14;;;;;;;0.70;0.70;;;20.50;51.10;;;;;;5150177;27;45191;-70
2023/08/08 03:32:41;;;;;;;0.85;0.60;;;20.50;51.10;;;;;;5150226;27;45402;-70
2023/08/08 03:35:09;;;;;;;0.50;0.50;;;20.40;51.00;;;;;;5150570;27;45282;-70
2023/08/08 03:37:36;;;;;;;0.70;0.70;;;20.40;51.00;;;;;;5150105;27;45557;-70
2023/08/08 03:40:03;;;;;;;0.73;0.70;;;20.40;51.10;;;;;;5149934;27;45259;-70
2023/08/08 03:42:31;;;;;;;0.80;0.60;;;20.40;51.00;;;;;;5149979;27;45211;-70
2023/08/08 03:44:58;;;;;;;0.85;0.80;;;20.40;51.00;;;;;;5149968;27;45465;-70
2023/08/08 03:47:25;;;;;;;0.70;0.70;;;20.40;51.10;;;;;;5149665;27;46647;-70
2023/08/08 03:49:54;;;;;;;0.47;0.47;;;20.40;51.10;;;;;;5149454;27;45314;-70
2023/08/08 03:52:21;;;;;;;1.15;0.60;;;20.40;51.10;;;;;;5149769;27;45349;-70
2023/08/08 03:54:48;;;;;;;1.13;0.70;;;20.30;51.10;;;;;;5149746;27;45324;-70
2023/08/08 03:57:15;;;;;;;0.95;0.70;;;20.30;51.10;;;;;;5149362;27;45521;-70
2023/08/08 03:59:43;;;;;;;0.70;0.70;;;20.30;51.20;;;;;;5149673;27;45209;-70
2023/08/08 04:02:10;;;;;;;0.70;0.70;;;20.30;51.10;;;;;;5149063;27;45234;-70
2023/08/08 04:04:38;;;;;;;0.60;0.60;;;20.30;51.10;;;;;;5149885;27;45392;-70
2023/08/08 04:07:05;;;;;;;0.70;0.70;;;20.30;51.10;;;;;;5149476;27;45668;-70
2023/08/08 04:09:32;;;;;;;0.63;0.60;;;20.30;51.10;;;;;;5149802;27;45348;-70
2023/08/08 04:11:59;;;;;;;0.60;0.60;;;20.30;51.10;;;;;;5149601;27;45313;-70
2023/08/08 04:14:26;;;;;;;0.70;0.70;;;20.30;51.10;;;;;;5149855;27;45422;-70
2023/08/08 04:16:54;;;;;;;0.45;0.45;;;20.30;51.10;;;;;;5146626;27;45281;-70
2023/08/08 04:19:21;;;;;;;0.85;0.50;;;20.20;51.00;;;;;;5148009;27;45444;-71
2023/08/08 04:21:47;;;;;;;0.60;0.60;;;20.20;51.10;;;;;;5149142;27;45293;-70
2023/08/08 04:24:14;;;;;;;0.50;0.50;;;20.20;51.10;;;;;;5149624;27;45185;-70
2023/08/08 04:26:41;;;;;;;0.50;0.47;;;20.20;51.10;;;;;;5149236;27;46141;-70
2023/08/08 04:29:08;;;;;;;0.47;0.47;;;20.20;51.10;;;;;;5149126;27;45282;-69
2023/08/08 04:31:35;;;;;;;0.50;0.50;;;20.20;51.10;;;;;;5149544;27;45359;-70
2023/08/08 04:34:03;;;;;;;1.25;0.60;;;20.20;51.10;;;;;;5149353;27;45473;-70
2023/08/08 04:36:30;;;;;;;0.60;0.60;;;20.20;51.10;;;;;;5148807;27;45522;-70
2023/08/08 04:38:57;;;;;;;0.45;0.45;;;20.20;51.10;;;;;;5149015;27;45303;-70
2023/08/08 04:41:24;;;;;;;0.57;0.57;;;20.20;51.10;;;;;;5149289;27;45355;-70
2023/08/08 04:43:50;;;;;;;0.68;0.68;;;20.10;51.00;;;;;;5149244;27;45378;-70
2023/08/08 04:46:17;;;;;;;0.57;0.57;;;20.10;51.10;;;;;;5148187;27;45472;-69
2023/08/08 04:48:44;;;;;;;0.63;0.60;;;20.10;51.10;;;;;;5148856;27;45187;-69
2023/08/08 04:51:12;;;;;;;0.60;0.60;;;20.10;51.00;;;;;;5148760;27;45230;-70
2023/08/08 04:53:39;;;;;;;0.60;0.60;;;20.10;51.10;;;;;;5148909;27;45326;-70
2023/08/08 04:56:06;;;;;;;0.80;0.80;;;20.10;51.10;;;;;;5148693;27;45275;-70
2023/08/08 04:58:33;;;;;;;0.60;0.60;;;20.10;51.10;;;;;;5148581;27;45195;-70
2023/08/08 05:00:59;;;;;;;0.70;0.70;;;20.10;51.10;;;;;;5148684;27;45284;-70
2023/08/08 05:03:26;;;;;;;1.10;0.60;;;20.10;51.10;;;;;;5148942;27;45174;-70
2023/08/08 05:05:53;;;;;;;0.98;0.52;;;20.10;51.70;;;;;;5148648;27;46620;-70
2023/08/08 05:08:21;;;;;;;0.90;0.50;;;20.10;51.10;;;;;;5148780;27;45276;-70
2023/08/08 05:10:48;;;;;;;0.85;0.70;;;20.00;50.90;;;;;;5148724;27;45294;-70
2023/08/08 05:13:15;;;;;;;0.98;0.70;;;20.10;51.10;;;;;;5149005;27;45243;-70
2023/08/08 05:15:42;;;;;;;0.60;0.60;;;20.10;51.10;;;;;;5148318;27;45314;-70
2023/08/08 05:18:09;;;;;;;0.60;0.60;;;20.10;51.10;;;;;;5148514;27;45278;-70
2023/08/08 05:20:35;;;;;;;0.45;0.45;;;20.10;51.00;;;;;;5148835;27;45389;-70
2023/08/08 05:23:02;;;;;;;0.70;0.70;;;20.00;51.00;;;;;;5148709;27;45399;-70
2023/08/08 05:25:30;;;;;;;2.97;0.70;;;20.00;50.90;;;;;;5148304;27;45225;-70
2023/08/08 05:27:57;;;;;;;0.50;0.47;;;20.00;50.90;;;;;;5147873;27;45154;-69
2023/08/08 05:30:24;;;;;;;0.40;0.40;;;20.10;51.00;;;;;;5149331;27;45311;-70
2023/08/08 05:32:51;;;;;;;0.60;0.60;;;20.10;50.90;;;;;;5152444;27;45324;-70
2023/08/08 05:35:17;;;;;;;0.90;0.75;;;20.10;50.90;;;;;;5151912;27;45560;-70
2023/08/08 05:37:44;;;;;;;0.60;0.60;;;20.00;50.90;;;;;;5151947;27;45249;-69
2023/08/08 05:40:11;;;;;;;0.52;0.52;;;20.00;50.90;;;;;;5152110;27;45316;-69
2023/08/08 05:42:40;;;;;;;0.65;0.65;;;20.00;50.90;;;;;;5152237;27;45395;-70
2023/08/08 05:45:08;;;;;;;1.05;0.90;;;20.00;50.90;;;;;;5151692;27;45295;-70
2023/08/08 05:47:35;;;;;;;0.70;0.68;;;20.00;50.90;;;;;;5151712;27;45246;-70
2023/08/08 05:50:02;;;;;;;0.57;0.57;;;20.00;50.90;;;;;;5151807;27;45207;-70
2023/08/08 05:52:28;;;;;;;0.70;0.70;;;20.10;50.90;;;;;;5151952;27;45299;-70
2023/08/08 05:54:55;;;;;;;0.77;0.77;;;20.10;50.80;;;;;;5151250;27;45465;-70
2023/08/08 05:57:22;;;;;;;0.50;0.50;;;20.10;50.80;;;;;;5151651;27;45305;-71
2023/08/08 05:59:50;;;;;;;0.90;0.60;;;20.10;50.80;;;;;;5151709;27;45195;-70
2023/08/08 06:02:17;;;;;;;1.52;0.75;;;20.10;50.80;;;;;;5151910;27;45186;-70
2023/08/08 06:04:45;;;;;;;1.27;0.70;;;20.10;50.80;;;;;;5151407;27;46350;-70
2023/08/08 06:07:12;;;;;;;0.60;0.60;;;20.10;50.90;;;;;;5151724;27;45414;-70
2023/08/08 06:09:38;;;;;;;0.65;0.65;;;20.10;50.90;;;;;;5151616;27;45187;-70
2023/08/08 06:12:06;;;;;;;0.80;0.80;;;20.10;50.90;;;;;;5151212;27;45218;-70
2023/08/08 06:14:33;;;;;;;0.50;0.50;;;20.10;50.80;;;;;;5151111;27;45537;-70
2023/08/08 06:17:01;;;;;;;0.73;0.50;;;20.10;50.80;;;;;;5151071;27;45297;-70
2023/08/08 06:19:28;;;;;;;0.60;0.60;;;20.10;50.90;;;;;;5151598;27;45279;-70
2023/08/08 06:21:54;;;;;;;0.70;0.60;;;20.10;50.90;;;;;;5151448;27;45395;-70
2023/08/08 06:24:21;;;;;;;1.05;0.60;;;20.10;50.80;;;;;;5151049;27;45550;-70
2023/08/08 06:26:48;;;;;;;0.82;0.60;;;20.10;50.80;;;;;;5151209;27;45301;-69
2023/08/08 06:29:15;;;;;;;0.82;0.70;;;20.10;50.80;;;;;;5151580;27;45367;-70
2023/08/08 06:31:41;;;;;;;0.85;0.63;;;20.10;50.80;;;;;;5151380;27;45468;-70
2023/08/08 06:34:10;;;;;;;0.70;0.60;;;20.10;50.80;;;;;;5150743;27;46542;-70
2023/08/08 06:36:37;;;;;;;0.82;0.70;;;20.10;50.80;;;;;;5151021;27;45259;-71
2023/08/08 06:39:04;;;;;;;1.50;0.55;;;20.10;50.80;;;;;;5151124;27;45445;-70
2023/08/08 06:41:31;;;;;;;2.30;0.80;;;20.10;50.80;;;;;;5150546;27;45529;-70
2023/08/08 06:43:58;;;;;;;0.65;0.65;;;20.20;50.80;;;;;;5150741;27;45573;-70
2023/08/08 06:46:25;;;;;;;0.70;0.70;;;20.20;50.70;;;;;;5150863;27;45197;-70
2023/08/08 06:48:56;;;;;;;1.23;1.08;;;20.20;50.70;;;;;;5150833;27;45202;-71
2023/08/08 06:51:24;;;;;;;1.13;0.90;;;20.20;50.70;;;;;;5151173;27;45292;-70
2023/08/08 06:53:51;;;;;;;0.75;0.75;;;20.20;50.70;;;;;;5150133;27;46389;-70
2023/08/08 06:56:18;;;;;;;0.68;0.68;;;20.20;50.80;;;;;;5150235;27;45259;-69
2023/08/08 06:58:45;;;;;;;1.55;0.70;;;20.20;50.80;;;;;;5150458;27;45237;-70
2023/08/08 07:01:13;;;;;;;1.23;0.80;;;20.20;50.70;;;;;;5150657;27;45395;-70
2023/08/08 07:03:39;;;;;;;0.95;0.70;;;20.20;50.70;;;;;;5150548;27;45690;-70
2023/08/08 07:06:06;;;;;;;0.95;0.80;;;20.30;50.80;;;;;;5150662;27;45267;-71
2023/08/08 07:08:35;;;;;;;0.43;0.43;;;20.30;50.70;;;;;;5150719;27;45184;-70
2023/08/08 07:11:01;;;;;;;1.05;0.70;;;20.30;50.70;;;;;;5151002;27;45213;-70
2023/08/08 07:13:28;;;;;;;0.70;0.70;;;20.30;50.70;;;;;;5150372;27;46278;-69
2023/08/08 07:15:55;;;;;;;0.65;0.65;;;20.30;50.70;;;;;;5150216;27;45286;-70
2023/08/08 07:18:22;;;;;;;1.05;0.90;;;20.40;50.70;;;;;;5150485;27;45277;-70
2023/08/08 07:20:49;;;;;;;0.80;0.70;;;20.40;50.70;;;;;;5150809;27;45410;-70
2023/08/08 07:23:16;;;;;;;0.70;0.70;;;20.40;50.60;;;;;;5150041;27;45729;-70
2023/08/08 07:25:44;;;;;;;0.73;0.70;;;20.40;50.60;;;;;;5150399;27;45378;-70
2023/08/08 07:28:11;;;;;;;1.58;0.80;;;20.50;50.60;;;;;;5150441;27;45251;-70
2023/08/08 07:30:38;;;;;;;0.70;0.70;;;20.50;50.60;;;;;;5150556;27;45262;-71
2023/08/08 07:33:05;;;;;;;1.00;0.80;;;20.50;50.60;;;;;;5149963;27;45248;-70
2023/08/08 07:35:33;;;;;;;1.77;0.82;;;20.50;50.60;;;;;;5150102;27;45325;-71
2023/08/08 07:38:00;;;;;;;0.50;0.50;;;20.50;50.50;;;;;;5150198;27;45320;-70
2023/08/08 07:40:27;;;;;;;0.82;0.73;;;20.50;50.50;;;;;;5149878;27;45227;-70
2023/08/08 07:42:55;;;;;;;0.73;0.70;;;20.60;50.50;;;;;;5149839;27;46725;-70
2023/08/08 07:45:22;;;;;;;0.75;0.75;;;20.60;50.50;;;;;;5149900;27;45378;-70
2023/08/08 07:47:49;;;;;;;1.00;0.70;;;20.60;50.50;;;;;;5149929;27;45216;-70
2023/08/08 07:50:16;;;;;;;0.85;0.80;;;20.60;50.50;;;;;;5149774;27;45318;-70
2023/08/08 07:52:43;;;;;;;1.02;0.80;;;20.60;50.50;;;;;;5149413;27;46418;-70
2023/08/08 07:55:10;;;;;;;1.30;0.90;;;20.60;50.50;;;;;;5149596;27;45304;-70
2023/08/08 07:57:37;;;;;;;0.80;0.80;;;20.60;50.50;;;;;;5149939;27;45338;-70
2023/08/08 08:00:07;;;;;;;0.73;0.63;;;20.60;50.50;;;;;;5150037;27;45278;-70
2023/08/08 08:02:34;;;;;;;0.52;0.50;;;20.70;50.50;;;;;;5149390;27;46404;-70
2023/08/08 08:05:02;;;;;;;0.57;0.57;;;20.70;50.50;;;;;;5149596;27;45253;-70
2023/08/08 08:07:29;;;;;;;0.82;0.70;;;20.70;50.60;;;;;;5149567;27;45193;-70
2023/08/08 08:09:55;;;;;;;0.88;0.60;;;20.70;50.60;;;;;;5150441;27;45451;-70
2023/08/08 08:12:22;;;;;;;1.23;0.82;;;20.80;50.60;;;;;;5149923;27;46472;-69
2023/08/08 08:14:49;;;;;;;0.80;0.70;;;20.80;50.60;;;;;;5149717;27;45397;-70
2023/08/08 08:17:17;;;;;;;0.65;0.65;;;20.80;50.60;;;;;;5149799;27;45359;-70
2023/08/08 08:19:44;;;;;;;0.80;0.60;;;20.80;50.60;;;;;;5149655;27;45201;-70
2023/08/08 08:22:11;;;;;;;0.65;0.60;;;20.90;50.70;;;;;;5149265;27;45759;-70
2023/08/08 08:24:38;;;;;;;0.80;0.80;;;20.90;50.70;;;;;;5148629;27;45203;-70
2023/08/08 08:27:05;;;;;;;0.70;0.70;;;20.90;50.70;;;;;;5149047;27;45384;-70
2023/08/08 08:29:32;;;;;;;1.92;0.68;;;20.90;50.70;;;;;;5149485;27;45306;-69
2023/08/08 08:31:59;;;;;;;0.68;0.68;;;20.90;50.60;;;;;;5148651;27;45479;-70
2023/08/08 08:34:27;;;;;;;0.80;0.80;;;21.00;50.60;;;;;;5148115;27;45257;-70
2023/08/08 08:36:54;;;;;;;0.55;0.55;;;21.00;50.60;;;;;;5148552;27;45365;-70
2023/08/08 08:39:21;;;;;;;0.88;0.80;;;21.00;51.30;;;;;;5148109;27;45394;-70
2023/08/08 08:41:49;;;;;;;1.50;0.80;;;21.10;50.80;;;;;;5148777;27;45562;-70
2023/08/08 08:44:16;;;;;;;1.23;0.80;;;21.10;51.00;;;;;;5149150;27;45196;-70
2023/08/08 08:46:43;;;;;;;0.95;0.70;;;21.10;51.10;;;;;;5149007;27;45160;-70
2023/08/08 08:49:10;;;;;;;0.70;0.70;;;21.20;51.40;;;;;;5151267;27;45342;-70
2023/08/08 08:51:38;;;;;;;0.95;0.70;;;21.20;51.50;;;;;;5162011;27;46407;-71
2023/08/08 08:54:05;;;;;;;0.75;0.75;;;21.30;51.80;;;;;;5169650;27;45169;-71
2023/08/08 08:56:32;;;;;;;1.00;0.82;;;21.30;51.90;;;;;;5169927;27;45268;-70
2023/08/08 08:59:00;;;;;;;1.35;1.00;;;21.40;52.00;;;;;;5170278;27;45438;-68
2023/08/08 09:01:27;;;;;;;1.25;0.80;;;21.40;52.10;;;;;;5169720;27;46734;-71
2023/08/08 09:03:54;;;;;;;2.58;0.95;;;21.40;52.30;;;;;;5170192;27;45331;-72
2023/08/08 09:06:20;;;;;;;1.33;1.02;;;21.50;52.50;;;;;;5166775;27;45188;-71
2023/08/08 09:08:49;;;;;;;2.78;1.27;;;21.50;52.40;;;;;;5169789;27;45408;-72
2023/08/08 09:11:15;;;;;;;4.43;0.70;;;21.60;52.40;;;;;;5171811;27;45289;-69
2023/08/08 09:13:42;;;;;;;0.70;0.70;;;21.60;52.40;;;;;;5171695;27;45302;-74
2023/08/08 09:16:09;;;;;;;2.25;0.90;;;21.60;52.10;;;;;;5170514;27;45262;-71
2023/08/08 09:18:38;;;;;;;3.22;1.00;;;21.70;51.80;;;;;;5158586;27;45235;-72
2023/08/08 09:21:04;;;;;;;1.38;1.00;;;21.70;51.30;;;;;;5157046;27;46328;-71
2023/08/08 09:23:31;;;;;;;1.55;0.95;;;21.80;50.60;;;;;;5158220;27;45280;-70
2023/08/08 09:25:59;;;;;;;3.60;2.38;;;21.90;51.30;;;;;;5166385;27;45259;-69
2023/08/08 09:28:26;;;;;;;2.42;2.22;;;21.90;51.20;;;;;;5169420;27;45207;-70
2023/08/08 09:30:53;;;;;;;4.35;1.70;;;22.00;51.00;;;;;;5156528;27;46394;-70
2023/08/08 09:33:20;;;;;;;1.83;1.40;;;22.00;50.90;;;;;;5162918;27;45308;-70
2023/08/08 09:35:47;;;;;;;2.55;1.30;;;22.00;50.90;;;;;;5166467;27;45281;-71
2023/08/08 09:38:14;;;;;;;6.97;1.20;;;22.10;50.90;;;;;;5168987;27;45333;-69
2023/08/08 09:40:41;;;;;;;1.65;1.40;;;22.10;50.80;;;;;;5168785;27;47491;-70
2023/08/08 09:43:09;;;;;;;1.25;1.20;;;22.10;50.80;;;;;;5168851;27;45216;-69
2023/08/08 09:45:37;;;;;;;3.33;1.30;;;22.10;50.80;;;;;;5169027;27;45343;-69
2023/08/08 09:48:06;;;;;;;0.90;0.90;;;22.10;50.80;;;;;;5169175;27;45427;-70
2023/08/08 09:50:34;;;;;;;1.02;0.90;;;22.10;50.90;;;;;;5168571;27;45469;-69
2023/08/08 09:53:02;;;;;;;1.05;0.95;;;22.20;50.90;;;;;;5168247;27;45322;-69
2023/08/08 09:55:29;;;;;;;0.80;0.80;;;22.20;51.00;;;;;;5168588;27;45318;-69
2023/08/08 09:57:55;;;;;;;2.05;0.95;;;22.20;51.00;;;;;;5168843;27;45486;-69
2023/08/08 10:00:25;;;;;;;1.13;1.02;;;22.20;50.90;;;;;;5168394;27;45471;-69
2023/08/08 10:02:52;;;;;;;0.70;0.70;;;22.30;50.90;;;;;;5168442;27;45309;-70
2023/08/08 10:05:19;;;;;;;1.15;0.98;;;22.30;50.80;;;;;;5150055;27;45331;-71
2023/08/08 10:07:45;;;;;;;1.35;0.98;;;22.30;51.60;;;;;;5147434;27;45270;-69
2023/08/08 10:10:12;;;;;;;2.15;1.00;;;22.40;50.70;;;;;;5147585;27;47717;-70
2023/08/08 10:12:39;;;;;;;1.55;1.17;;;22.40;50.20;;;;;;5147572;27;45141;-71
2023/08/08 10:15:08;;;;;;;2.00;0.90;;;22.50;49.70;;;;;;5147677;27;45303;-71
2023/08/08 10:17:40;;;;;;;2.63;1.10;;;22.50;49.30;;;;;;5149558;27;45265;-69
2023/08/08 10:20:11;;;;;;;1.52;0.90;;;22.60;49.20;;;;;;5150618;27;48324;-70
2023/08/08 10:22:39;;;;;;;1.02;0.82;;;22.60;49.20;;;;;;5150295;27;45244;-67
2023/08/08 10:25:06;;;;;;;0.70;0.70;;;22.60;49.30;;;;;;5150370;27;45280;-68
2023/08/08 10:27:33;;;;;;;1.95;0.90;;;22.60;48.90;;;;;;5150758;27;45435;-69
2023/08/08 10:30:10;;;;;;;2.17;0.77;;;22.70;49.00;;;;;;5150400;27;46808;-69
2023/08/08 10:32:41;;;;;;;0.85;0.85;;;22.70;48.60;;;;;;5149287;27;45266;-69
2023/08/08 10:35:09;;;;;;;1.63;0.95;;;22.80;48.30;;;;;;5148344;27;45301;-69
2023/08/08 10:37:36;;;;;;;1.10;0.70;;;22.90;47.90;;;;;;5149967;27;45266;-69
2023/08/08 10:40:05;;;;;;;1.67;0.85;;;22.90;47.50;;;;;;5149985;27;47239;-68
2023/08/08 10:42:34;;;;;;;1.85;0.70;;;22.90;47.40;;;;;;5150228;27;45444;-70
2023/08/08 10:45:02;;;;;;;1.02;0.90;;;23.00;47.40;;;;;;5150301;27;45294;-69
2023/08/08 10:47:32;;;;;;;1.63;0.65;;;23.00;47.00;;;;;;5150365;27;45313;-69
2023/08/08 10:50:04;;;;;;;4.70;0.75;;;23.10;46.90;;;;;;5149871;27;45289;-68
2023/08/08 10:52:31;;;;;;;1.23;1.00;;;23.20;47.20;;;;;;5150278;27;45181;-69
2023/08/08 10:54:59;;;;;;;0.80;0.80;;;23.20;47.20;;;;;;5150689;27;45514;-69
2023/08/08 10:57:26;;;;;;;0.80;0.70;;;23.30;47.30;;;;;;5150441;27;45474;-69
2023/08/08 10:59:53;;;;;;;1.52;0.73;;;23.30;47.20;;;;;;5147637;27;46252;-69
2023/08/08 11:02:20;;;;;;;1.48;0.70;;;23.40;46.80;;;;;;5150207;27;45220;-69
2023/08/08 11:04:50;;;;;;;0.77;0.77;;;23.50;46.70;;;;;;5150344;27;44756;-69
2023/08/08 11:07:18;;;;;;;0.80;0.80;;;23.50;46.50;;;;;;5150293;27;45546;-68
2023/08/08 11:09:45;;;;;;;1.92;0.60;;;23.60;46.60;;;;;;5149991;27;47004;-70
2023/08/08 11:12:15;;;;;;;0.98;0.98;;;23.60;46.40;;;;;;5149949;27;45625;-70
2023/08/08 11:14:43;;;;;;;3.13;1.00;;;23.60;46.80;;;;;;5150192;27;45195;-69
2023/08/08 11:17:10;;;;;;;1.58;0.90;;;23.60;46.90;;;;;;5149824;27;45307;-67
2023/08/08 11:19:40;;;;;;;1.88;0.90;;;23.60;46.80;;;;;;5149404;27;45478;-68
2023/08/08 11:22:10;;;;;;;1.75;1.00;;;23.70;46.90;;;;;;5149324;27;45272;-70
2023/08/08 11:24:38;;;;;;;0.88;0.88;;;23.80;46.80;;;;;;5150013;27;45416;-68
2023/08/08 11:27:05;;;;;;;1.10;1.00;;;23.90;46.40;;;;;;5150015;27;45294;-72
2023/08/08 11:29:32;;;;;;;0.80;0.80;;;24.00;46.30;;;;;;5149025;27;46390;-69
2023/08/08 11:32:01;;;;;;;1.35;0.80;;;24.00;46.30;;;;;;5149806;27;45287;-67
2023/08/08 11:34:30;;;;;;;1.15;0.80;;;24.10;46.80;;;;;;5149702;27;45394;-69
2023/08/08 11:36:58;;;;;;;0.98;0.82;;;24.10;47.20;;;;;;5149212;27;45604;-70
2023/08/08 11:39:25;;;;;;;3.00;0.95;;;24.20;47.50;;;;;;5149596;27;46306;-70
2023/08/08 11:41:53;;;;;;;1.05;0.90;;;24.20;47.40;;;;;;5147135;27;45398;-70
2023/08/08 11:44:20;;;;;;;0.80;0.80;;;24.20;47.00;;;;;;5149717;27;45362;-70
2023/08/08 11:46:47;;;;;;;2.08;0.73;;;24.20;47.10;;;;;;5149496;27;45367;-70
2023/08/08 11:49:15;;;;;;;7.55;1.00;;;24.30;47.10;;;;;;5149194;27;46714;-68
2023/08/08 11:51:44;;;;;;;0.80;0.80;;;24.30;46.70;;;;;;5149316;27;45322;-71
2023/08/08 11:54:11;;;;;;;3.97;0.93;;;24.30;46.70;;;;;;5149180;27;45318;-71
2023/08/08 11:56:37;;;;;;;0.75;0.75;;;24.30;46.00;;;;;;5149943;27;45469;-69
2023/08/08 11:59:06;;;;;;;0.88;0.80;;;24.20;44.00;;;;;;5148277;27;46840;-69
2023/08/08 12:01:34;;;;;;;4.65;1.00;;;24.20;43.40;;;;;;5149369;27;45330;-68
2023/08/08 12:04:05;;;;;;;3.28;1.15;;;24.20;43.30;;;;;;5149126;27;45460;-69
2023/08/08 12:06:32;;;;;;;2.72;0.77;;;24.30;43.90;;;;;;5149449;27;45177;-69
2023/08/08 12:09:00;;;;;;;2.08;0.73;;;24.20;43.20;;;;;;5148317;27;46707;-69
2023/08/08 12:11:27;;;;;;;1.42;1.00;;;24.30;43.50;;;;;;5148789;27;45371;-71
2023/08/08 12:13:59;;;;;;;0.93;0.70;;;24.30;43.20;;;;;;5148414;27;45295;-68
2023/08/08 12:16:28;;;;;;;2.85;0.90;;;24.30;42.80;;;;;;5148800;27;45417;-70
2023/08/08 12:18:55;;;;;;;2.13;0.98;;;24.30;43.50;;;;;;5148945;27;45443;-72
2023/08/08 12:21:21;;;;;;;1.08;0.60;;;24.30;43.20;;;;;;5149063;27;45230;-69
2023/08/08 12:23:48;;;;;;;1.15;0.73;;;24.40;42.80;;;;;;5149023;27;45380;-69
2023/08/08 12:26:15;;;;;;;8.15;1.35;;;24.50;43.20;;;;;;5148855;27;45458;-66
2023/08/08 12:28:42;;;;;;;5.65;1.00;;;24.50;43.60;;;;;;5145879;27;45330;-70
2023/08/08 12:31:09;;;;;;;1.08;0.93;;;24.50;42.90;;;;;;5148823;27;45252;-74
2023/08/08 12:33:37;;;;;;;3.38;0.88;;;24.50;42.90;;;;;;5149050;27;45332;-69
2023/08/08 12:36:04;;;;;;;1.50;0.80;;;24.50;43.20;;;;;;5148982;27;45350;-67
2023/08/08 12:38:31;;;;;;;4.40;0.85;;;24.50;42.90;;;;;;5148661;27;45536;-71
2023/08/08 12:40:58;;;;;;;1.45;1.00;;;24.50;42.90;;;;;;5147928;27;45309;-70
2023/08/08 12:43:24;;;;;;;2.17;1.00;;;24.40;42.50;;;;;;5148671;27;45237;-71
2023/08/08 12:45:51;;;;;;;4.18;1.10;;;24.40;42.40;;;;;;5148790;27;45183;-71
2023/08/08 12:48:18;;;;;;;0.88;0.80;;;24.30;42.70;;;;;;5148349;27;46577;-69